createdAt,value
2022-10-11T00:00:55.425Z,9.30
2022-10-11T00:01:56.979Z,9.03
2022-10-11T00:02:59.310Z,9.60
2022-10-11T00:04:00.908Z,9.47
2022-10-11T00:05:02.685Z,9.27
2022-10-11T00:06:06.064Z,9.27
2022-10-11T00:07:08.079Z,8.97
2022-10-11T00:08:12.083Z,9.43
2022-10-11T00:09:16.164Z,9.47
2022-10-11T00:10:18.815Z,9.33
2022-10-11T00:11:20.358Z,9.47
2022-10-11T00:12:21.892Z,9.87
2022-10-11T00:13:23.528Z,9.37
2022-10-11T00:14:26.661Z,10.00
2022-10-11T00:15:28.382Z,10.20
2022-10-11T00:16:30.098Z,9.93
2022-10-11T00:17:32.094Z,9.53
2022-10-11T00:18:33.608Z,9.80
2022-10-11T00:19:35.140Z,10.43
2022-10-11T00:20:36.674Z,9.30
2022-10-11T00:21:38.302Z,9.63
2022-10-11T00:22:40.689Z,9.90
2022-10-11T00:23:43.040Z,9.10
2022-10-11T00:25:03.325Z,9.50
2022-10-11T00:26:07.489Z,9.67
2022-10-11T00:27:09.400Z,9.53
2022-10-11T00:28:10.990Z,9.63
2022-10-11T00:29:12.847Z,9.17
2022-10-11T00:30:14.615Z,9.57
2022-10-11T00:31:16.553Z,9.70
2022-10-11T00:32:18.341Z,9.90
2022-10-11T00:33:19.886Z,9.50
2022-10-11T00:34:21.448Z,9.37
2022-10-11T00:35:22.970Z,9.07
2022-10-11T00:36:25.003Z,9.50
2022-10-11T00:37:26.553Z,9.90
2022-10-11T00:38:28.270Z,8.80
2022-10-11T00:39:30.029Z,9.00
2022-10-11T00:40:31.563Z,9.03
2022-10-11T00:41:33.246Z,9.10
2022-10-11T00:42:35.045Z,9.37
2022-10-11T00:43:36.556Z,9.33
2022-10-11T00:44:40.046Z,9.37
2022-10-11T00:45:56.889Z,9.90
2022-10-11T00:47:01.814Z,10.23
2022-10-11T00:48:11.648Z,9.93
2022-10-11T00:49:42.833Z,9.57
2022-10-11T00:50:44.456Z,10.30
2022-10-11T00:51:51.203Z,9.70
2022-10-11T00:52:59.468Z,9.83
2022-10-11T00:54:02.258Z,10.20
2022-10-11T00:55:14.381Z,9.80
2022-10-11T00:56:26.272Z,9.93
2022-10-11T00:57:31.721Z,9.70
2022-10-11T00:58:36.344Z,9.37
2022-10-11T00:59:42.445Z,10.50
2022-10-11T01:00:44.101Z,9.60
2022-10-11T01:01:45.789Z,9.57
2022-10-11T01:02:48.065Z,10.27
2022-10-11T01:03:49.640Z,10.00
2022-10-11T01:05:05.893Z,10.17
2022-10-11T01:06:13.521Z,10.30
2022-10-11T01:07:16.121Z,10.47
2022-10-11T01:08:18.272Z,10.20
2022-10-11T01:09:21.165Z,10.43
2022-10-11T01:10:22.852Z,9.63
2022-10-11T01:11:27.217Z,10.37
2022-10-11T01:12:31.686Z,10.70
2022-10-11T01:14:17.392Z,10.23
2022-10-11T01:15:29.022Z,10.60
2022-10-11T01:16:55.827Z,10.27
2022-10-11T01:18:11.124Z,10.80
2022-10-11T01:19:24.909Z,10.23
2022-10-11T01:20:41.635Z,10.43
2022-10-11T01:21:55.616Z,10.73
2022-10-11T01:23:21.857Z,11.17
2022-10-11T01:24:42.052Z,10.77
2022-10-11T01:26:02.170Z,11.30
2022-10-11T01:27:17.803Z,11.07
2022-10-11T01:28:39.250Z,10.90
2022-10-11T01:30:03.678Z,11.07
2022-10-11T01:31:17.041Z,11.23
2022-10-11T01:32:50.624Z,10.33
2022-10-11T01:33:59.090Z,11.30
2022-10-11T01:35:27.998Z,10.30
2022-10-11T01:36:40.365Z,10.60
2022-10-11T01:37:55.637Z,11.03
2022-10-11T01:39:04.481Z,11.70
2022-10-11T01:40:24.941Z,11.33
2022-10-11T01:41:36.422Z,11.63
2022-10-11T01:42:40.054Z,12.00
2022-10-11T01:43:42.608Z,12.37
2022-10-11T01:44:47.664Z,11.60
2022-10-11T01:45:54.604Z,11.83
2022-10-11T01:46:56.286Z,11.53
2022-10-11T01:48:12.315Z,11.27
2022-10-11T01:49:13.832Z,10.70
2022-10-11T01:50:37.459Z,10.63
2022-10-11T01:52:06.295Z,10.90
2022-10-11T01:53:29.477Z,10.67
2022-10-11T01:54:56.972Z,10.27
2022-10-11T01:56:40.184Z,10.40
2022-10-11T01:57:48.234Z,10.57
2022-10-11T01:59:08.375Z,10.87
2022-10-11T02:00:25.956Z,10.40
2022-10-11T02:01:46.285Z,10.77
2022-10-11T02:02:52.451Z,10.50
2022-10-11T02:04:15.390Z,11.47
2022-10-11T02:05:51.756Z,12.70
2022-10-11T02:07:01.371Z,10.90
2022-10-11T02:08:12.243Z,11.13
2022-10-11T02:09:26.753Z,11.50
2022-10-11T02:10:37.548Z,10.97
2022-10-11T02:11:39.226Z,11.17
2022-10-11T02:12:48.376Z,10.70
2022-10-11T02:14:24.515Z,11.20
2022-10-11T02:15:30.598Z,10.53
2022-10-11T02:16:39.117Z,11.20
2022-10-11T02:17:45.613Z,11.57
2022-10-11T02:18:51.325Z,12.00
2022-10-11T02:19:56.438Z,11.83
2022-10-11T02:21:00.909Z,12.13
2022-10-11T02:22:08.659Z,11.63
2022-10-11T02:23:45.707Z,12.27
2022-10-11T02:24:51.785Z,12.83
2022-10-11T02:25:56.194Z,12.57
2022-10-11T02:27:00.025Z,12.70
2022-10-11T02:28:06.030Z,11.60
2022-10-11T02:29:12.160Z,11.77
2022-10-11T02:30:14.989Z,11.70
2022-10-11T02:31:17.902Z,11.67
2022-10-11T02:32:21.967Z,11.47
2022-10-11T02:33:47.958Z,11.67
2022-10-11T02:34:55.578Z,12.00
2022-10-11T02:36:06.385Z,11.83
2022-10-11T02:37:26.718Z,11.70
2022-10-11T02:38:37.502Z,11.93
2022-10-11T02:40:04.061Z,12.80
2022-10-11T02:41:30.271Z,12.40
2022-10-11T02:42:37.325Z,11.80
2022-10-11T02:43:44.257Z,11.47
2022-10-11T02:45:19.117Z,12.23
2022-10-11T02:46:22.132Z,13.20
2022-10-11T02:47:23.738Z,12.67
2022-10-11T02:48:28.516Z,12.87
2022-10-11T02:49:31.698Z,13.33
2022-10-11T02:50:33.489Z,13.17
2022-10-11T02:51:36.111Z,12.80
2022-10-11T02:52:37.676Z,12.37
2022-10-11T02:53:39.282Z,12.87
2022-10-11T02:54:40.815Z,13.20
2022-10-11T02:55:42.345Z,13.23
2022-10-11T02:56:43.894Z,12.57
2022-10-11T02:57:45.579Z,14.13
2022-10-11T02:58:47.212Z,13.13
2022-10-11T02:59:48.757Z,12.63
2022-10-11T03:00:51.005Z,12.03
2022-10-11T03:01:52.537Z,13.97
2022-10-11T03:02:54.172Z,12.80
2022-10-11T03:03:55.784Z,13.50
2022-10-11T03:04:57.629Z,14.03
2022-10-11T03:06:01.306Z,13.43
2022-10-11T03:07:03.598Z,13.73
2022-10-11T03:08:05.214Z,13.90
2022-10-11T03:09:07.056Z,13.50
2022-10-11T03:10:09.016Z,13.53
2022-10-11T03:11:10.551Z,13.67
2022-10-11T03:12:12.059Z,13.73
2022-10-11T03:13:17.899Z,13.67
2022-10-11T03:14:20.029Z,13.63
2022-10-11T03:15:21.570Z,13.40
2022-10-11T03:16:23.086Z,13.67
2022-10-11T03:17:36.180Z,12.93
2022-10-11T03:18:38.377Z,12.80
2022-10-11T03:19:39.906Z,13.20
2022-10-11T03:20:41.429Z,13.00
2022-10-11T03:21:43.029Z,13.13
2022-10-11T03:22:44.543Z,12.80
2022-10-11T03:23:46.203Z,13.83
2022-10-11T03:24:47.792Z,13.27
2022-10-11T03:25:49.310Z,13.20
2022-10-11T03:26:50.865Z,13.67
2022-10-11T03:27:52.389Z,13.40
2022-10-11T03:28:53.912Z,13.70
2022-10-11T03:29:55.781Z,13.33
2022-10-11T03:30:57.486Z,14.13
2022-10-11T03:31:59.403Z,14.03
2022-10-11T03:33:00.893Z,13.70
2022-10-11T03:34:02.677Z,13.10
2022-10-11T03:35:04.786Z,12.93
2022-10-11T03:36:06.876Z,14.23
2022-10-11T03:37:08.709Z,13.60
2022-10-11T03:38:14.197Z,14.67
2022-10-11T03:39:15.924Z,13.33
2022-10-11T03:40:17.662Z,14.37
2022-10-11T03:41:19.247Z,14.13
2022-10-11T03:42:20.940Z,14.13
2022-10-11T03:43:22.644Z,14.60
2022-10-11T03:44:25.219Z,14.57
2022-10-11T03:45:26.792Z,14.40
2022-10-11T03:46:28.343Z,14.30
2022-10-11T03:47:29.861Z,13.77
2022-10-11T03:48:31.592Z,14.10
2022-10-11T03:49:33.155Z,13.50
2022-10-11T03:50:35.313Z,12.87
2022-10-11T03:51:36.836Z,12.50
2022-10-11T03:52:38.381Z,12.40
2022-10-11T03:53:39.912Z,13.60
2022-10-11T03:54:41.410Z,12.47
2022-10-11T03:55:43.171Z,12.47
2022-10-11T03:56:44.718Z,12.73
2022-10-11T03:57:46.217Z,12.87
2022-10-11T03:58:47.963Z,13.17
2022-10-11T03:59:49.589Z,12.67
2022-10-11T04:00:52.873Z,12.70
2022-10-11T04:01:54.471Z,13.60
2022-10-11T04:02:56.101Z,13.27
2022-10-11T04:03:57.794Z,12.47
2022-10-11T04:04:59.316Z,13.47
2022-10-11T04:06:01.398Z,13.07
2022-10-11T04:07:03.385Z,13.60
2022-10-11T04:08:09.725Z,13.87
2022-10-11T04:09:13.465Z,13.50
2022-10-11T04:10:15.006Z,13.37
2022-10-11T04:11:16.573Z,13.70
2022-10-11T04:12:18.169Z,13.87
2022-10-11T04:13:19.687Z,14.00
2022-10-11T04:14:21.210Z,12.73
2022-10-11T04:15:22.818Z,13.53
2022-10-11T04:16:24.348Z,13.20
2022-10-11T04:17:25.991Z,13.20
2022-10-11T04:18:27.498Z,14.10
2022-10-11T04:19:29.147Z,13.47
2022-10-11T04:20:30.671Z,14.20
2022-10-11T04:21:32.392Z,14.23
2022-10-11T04:22:34.087Z,13.57
2022-10-11T04:23:35.724Z,13.20
2022-10-11T04:24:37.296Z,13.07
2022-10-11T04:25:39.663Z,12.63
2022-10-11T04:26:41.223Z,13.80
2022-10-11T04:27:43.026Z,13.60
2022-10-11T04:28:44.661Z,13.63
2022-10-11T04:29:46.189Z,13.57
2022-10-11T04:30:47.742Z,13.47
2022-10-11T04:31:49.442Z,13.70
2022-10-11T04:32:51.012Z,13.77
2022-10-11T04:33:52.611Z,13.50
2022-10-11T04:34:54.107Z,14.20
2022-10-11T04:35:56.831Z,15.00
2022-10-11T04:36:58.415Z,14.60
2022-10-11T04:37:59.975Z,14.23
2022-10-11T04:39:01.889Z,14.13
2022-10-11T04:40:05.401Z,14.03
2022-10-11T04:41:12.484Z,14.50
2022-10-11T04:42:14.039Z,14.27
2022-10-11T04:43:16.795Z,14.63
2022-10-11T04:44:18.358Z,13.57
2022-10-11T04:45:21.064Z,13.80
2022-10-11T04:46:22.767Z,14.07
2022-10-11T04:47:24.373Z,14.87
2022-10-11T04:48:25.971Z,15.33
2022-10-11T04:49:27.535Z,14.53
2022-10-11T04:50:29.073Z,14.00
2022-10-11T04:51:30.678Z,14.67
2022-10-11T04:52:32.287Z,15.00
2022-10-11T04:53:33.804Z,15.13
2022-10-11T04:54:35.379Z,15.90
2022-10-11T04:55:36.913Z,15.07
2022-10-11T04:56:38.426Z,15.40
2022-10-11T04:57:39.988Z,15.40
2022-10-11T04:58:41.604Z,15.37
2022-10-11T04:59:47.866Z,14.60
2022-10-11T05:00:51.455Z,15.13
2022-10-11T05:01:53.510Z,16.03
2022-10-11T05:02:55.290Z,15.53
2022-10-11T05:03:56.917Z,14.83
2022-10-11T05:04:58.689Z,15.53
2022-10-11T05:06:05.192Z,14.57
2022-10-11T05:07:07.363Z,14.47
2022-10-11T05:08:08.932Z,14.30
2022-10-11T05:09:10.627Z,13.57
2022-10-11T05:10:12.242Z,14.47
2022-10-11T05:11:16.922Z,13.20
2022-10-11T05:12:18.448Z,14.03
2022-10-11T05:13:20.023Z,13.43
2022-10-11T05:14:21.551Z,13.63
2022-10-11T05:15:23.088Z,13.73
2022-10-11T05:16:24.765Z,13.47
2022-10-11T05:17:26.310Z,13.53
2022-10-11T05:18:28.398Z,13.23
2022-10-11T05:19:30.269Z,13.50
2022-10-11T05:20:31.772Z,13.80
2022-10-11T05:21:33.469Z,14.73
2022-10-11T05:22:35.027Z,14.77
2022-10-11T05:23:37.263Z,14.60
2022-10-11T05:24:38.981Z,14.50
2022-10-11T05:25:40.516Z,13.80
2022-10-11T05:26:42.045Z,14.67
2022-10-11T05:27:43.571Z,14.13
2022-10-11T05:28:45.821Z,14.37
2022-10-11T05:29:47.443Z,14.87
2022-10-11T05:30:49.354Z,15.77
2022-10-11T05:31:50.873Z,15.97
2022-10-11T05:32:52.468Z,16.60
2022-10-11T05:33:54.097Z,15.87
2022-10-11T05:34:55.848Z,16.50
2022-10-11T05:35:57.426Z,17.73
2022-10-11T05:36:59.007Z,16.17
2022-10-11T05:38:00.557Z,16.53
2022-10-11T05:39:02.116Z,16.67
2022-10-11T05:40:04.233Z,22.33
2022-10-11T05:41:06.462Z,24.50
2022-10-11T05:42:10.035Z,20.43
2022-10-11T05:43:11.897Z,28.73
2022-10-11T05:44:13.483Z,18.80
2022-10-11T05:45:15.062Z,17.43
2022-10-11T05:46:16.833Z,17.00
2022-10-11T05:47:18.356Z,17.00
2022-10-11T05:48:19.882Z,15.47
2022-10-11T05:49:21.496Z,16.47
2022-10-11T05:50:24.384Z,15.90
2022-10-11T05:51:26.300Z,16.70
2022-10-11T05:52:27.801Z,16.47
2022-10-11T05:53:30.073Z,16.60
2022-10-11T05:54:31.749Z,15.57
2022-10-11T05:55:37.611Z,16.23
2022-10-11T05:56:39.545Z,15.93
2022-10-11T05:57:41.146Z,15.03
2022-10-11T05:58:43.137Z,15.70
2022-10-11T05:59:44.699Z,15.50
2022-10-11T06:00:46.955Z,17.17
2022-10-11T06:01:49.207Z,14.83
2022-10-11T06:02:50.783Z,14.67
2022-10-11T06:03:52.948Z,14.83
2022-10-11T06:04:54.515Z,14.47
2022-10-11T06:05:57.326Z,14.87
2022-10-11T06:06:59.009Z,15.07
2022-10-11T06:08:01.032Z,15.07
2022-10-11T06:09:02.581Z,14.80
2022-10-11T06:10:04.883Z,14.73
2022-10-11T06:11:13.810Z,15.10
2022-10-11T06:12:15.302Z,15.07
2022-10-11T06:13:16.857Z,15.67
2022-10-11T06:14:18.733Z,16.60
2022-10-11T06:15:20.412Z,15.40
2022-10-11T06:16:21.933Z,16.03
2022-10-11T06:17:24.113Z,15.77
2022-10-11T06:18:25.629Z,16.40
2022-10-11T06:19:27.674Z,15.27
2022-10-11T06:20:29.336Z,16.93
2022-10-11T06:21:31.234Z,16.33
2022-10-11T06:22:32.889Z,15.63
2022-10-11T06:23:34.553Z,15.57
2022-10-11T06:24:36.089Z,14.60
2022-10-11T06:25:37.799Z,14.40
2022-10-11T06:26:39.811Z,15.17
2022-10-11T06:27:41.369Z,14.60
2022-10-11T06:28:43.262Z,16.50
2022-10-11T06:29:44.804Z,15.67
2022-10-11T06:30:46.340Z,15.50
2022-10-11T06:31:48.868Z,15.73
2022-10-11T06:32:50.374Z,15.43
2022-10-11T06:33:51.974Z,15.37
2022-10-11T06:34:53.535Z,15.20
2022-10-11T06:36:03.936Z,15.13
2022-10-11T06:37:05.800Z,17.13
2022-10-11T06:38:07.425Z,15.57
2022-10-11T06:39:08.986Z,15.20
2022-10-11T06:40:11.092Z,15.00
2022-10-11T06:47:49.168Z,16.43
2022-10-11T06:48:51.224Z,15.77
2022-10-11T06:49:52.730Z,15.53
2022-10-11T06:50:59.926Z,16.10
2022-10-11T06:52:01.825Z,15.83
2022-10-11T06:53:03.443Z,16.93
2022-10-11T06:54:05.336Z,17.47
2022-10-11T06:55:07.206Z,18.33
2022-10-11T06:56:11.678Z,17.87
2022-10-11T06:57:13.254Z,19.30
2022-10-11T06:58:14.802Z,20.40
2022-10-11T06:59:16.344Z,17.93
2022-10-11T07:00:18.064Z,19.63
2022-10-11T07:01:21.514Z,21.53
2022-10-11T07:02:25.052Z,19.20
2022-10-11T07:03:26.885Z,19.90
2022-10-11T07:04:28.433Z,20.20
2022-10-11T07:05:32.087Z,20.77
2022-10-11T07:06:39.975Z,18.97
2022-10-11T07:07:41.544Z,20.23
2022-10-11T07:08:43.271Z,19.17
2022-10-11T07:09:44.785Z,19.10
2022-10-11T07:10:46.295Z,18.77
2022-10-11T07:11:48.910Z,19.17
2022-10-11T07:12:50.452Z,19.23
2022-10-11T07:13:57.174Z,19.07
2022-10-11T07:14:58.678Z,19.20
2022-10-11T07:16:10.000Z,19.40
2022-10-11T07:17:11.575Z,18.43
2022-10-11T07:18:13.361Z,17.63
2022-10-11T07:19:14.989Z,20.10
2022-10-11T07:20:16.688Z,19.03
2022-10-11T07:21:18.275Z,18.70
2022-10-11T07:22:19.810Z,18.87
2022-10-11T07:23:21.351Z,18.80
2022-10-11T07:24:23.103Z,18.43
2022-10-11T07:25:24.676Z,18.57
2022-10-11T07:26:26.584Z,17.97
2022-10-11T07:27:28.321Z,18.47
2022-10-11T07:28:30.778Z,18.07
2022-10-11T07:29:32.411Z,18.17
2022-10-11T07:30:34.073Z,17.70
2022-10-11T07:31:38.099Z,17.27
2022-10-11T07:32:39.838Z,16.90
2022-10-11T07:33:41.738Z,18.97
2022-10-11T07:34:43.749Z,17.73
2022-10-11T07:35:48.364Z,18.60
2022-10-11T07:36:50.353Z,18.87
2022-10-11T07:37:51.888Z,17.87
2022-10-11T07:38:53.519Z,18.33
2022-10-11T07:39:55.045Z,18.80
2022-10-11T07:40:56.638Z,18.40
2022-10-11T07:41:58.230Z,19.07
2022-10-11T07:43:00.877Z,19.13
2022-10-11T07:44:03.366Z,17.40
2022-10-11T07:45:05.532Z,18.80
2022-10-11T07:46:07.773Z,17.67
2022-10-11T07:47:11.454Z,17.47
2022-10-11T07:48:13.369Z,17.87
2022-10-11T07:49:15.085Z,17.63
2022-10-11T07:50:16.942Z,17.00
2022-10-11T07:51:21.299Z,17.30
2022-10-11T07:52:22.818Z,18.23
2022-10-11T07:53:24.348Z,18.23
2022-10-11T07:54:25.989Z,17.67
2022-10-11T07:55:27.808Z,18.67
2022-10-11T07:56:30.062Z,19.43
2022-10-11T07:57:31.950Z,19.27
2022-10-11T07:58:33.487Z,20.30
2022-10-11T07:59:35.081Z,20.60
2022-10-11T08:00:37.346Z,19.47
2022-10-11T08:01:38.953Z,20.03
2022-10-11T08:02:40.696Z,21.43
2022-10-11T08:03:42.242Z,22.10
2022-10-11T08:04:43.823Z,21.57
2022-10-11T08:05:45.697Z,21.00
2022-10-11T08:06:51.104Z,18.47
2022-10-11T08:07:55.071Z,18.30
2022-10-11T08:08:57.439Z,17.60
2022-10-11T08:09:58.978Z,18.30
2022-10-11T08:11:00.935Z,17.40
2022-10-11T08:12:02.506Z,17.77
2022-10-11T08:13:04.531Z,18.53
2022-10-11T08:14:09.110Z,16.83
2022-10-11T08:15:10.968Z,18.13
2022-10-11T08:16:13.354Z,17.47
2022-10-11T08:17:14.926Z,18.90
2022-10-11T08:18:16.619Z,18.17
2022-10-11T08:19:18.859Z,18.47
2022-10-11T08:20:20.446Z,17.70
2022-10-11T08:21:21.995Z,18.17
2022-10-11T08:22:23.879Z,18.57
2022-10-11T08:23:25.409Z,18.17
2022-10-11T08:24:26.979Z,18.13
2022-10-11T08:25:28.563Z,17.77
2022-10-11T08:26:30.966Z,17.43
2022-10-11T08:27:32.498Z,17.93
2022-10-11T08:28:34.186Z,17.60
2022-10-11T08:29:35.785Z,17.23
2022-10-11T08:30:37.337Z,17.37
2022-10-11T08:31:38.869Z,18.50
2022-10-11T08:32:40.492Z,18.60
2022-10-11T08:33:42.748Z,17.43
2022-10-11T08:34:44.272Z,17.27
2022-10-11T08:35:46.165Z,18.20
2022-10-11T08:36:48.628Z,17.17
2022-10-11T08:37:50.184Z,18.47
2022-10-11T08:38:51.753Z,18.35
2022-10-11T08:39:53.304Z,16.92
2022-10-11T08:40:57.076Z,17.60
2022-10-11T08:42:06.937Z,17.27
2022-10-11T08:43:15.316Z,17.88
2022-10-11T08:45:05.449Z,17.13
2022-10-11T08:46:04.624Z,17.02
2022-10-11T08:47:25.788Z,17.80
2022-10-11T08:48:56.957Z,16.83
2022-10-11T08:49:59.687Z,17.13
2022-10-11T08:51:02.670Z,17.50
2022-10-11T08:52:11.942Z,16.15
2022-10-11T08:53:28.752Z,16.20
2022-10-11T08:55:02.538Z,16.50
2022-10-11T08:56:05.249Z,16.67
2022-10-11T08:57:09.850Z,16.10
2022-10-11T08:58:19.548Z,16.40
2022-10-11T08:59:27.045Z,16.73
2022-10-11T09:00:32.780Z,16.15
2022-10-11T09:01:35.857Z,16.10
2022-10-11T09:03:06.838Z,16.30
2022-10-11T09:04:06.172Z,16.27
2022-10-11T09:05:14.172Z,16.35
2022-10-11T09:06:42.791Z,15.48
2022-10-11T09:08:09.457Z,15.73
2022-10-11T09:09:48.993Z,14.80
2022-10-11T09:11:28.527Z,15.25
2022-10-11T09:12:51.207Z,15.45
2022-10-11T09:14:28.419Z,15.68
2022-10-11T09:15:46.856Z,15.73
2022-10-11T09:17:18.756Z,16.10
2022-10-11T09:18:53.185Z,16.60
2022-10-11T09:20:33.376Z,16.55
2022-10-11T09:21:59.200Z,16.10
2022-10-11T09:23:11.778Z,14.82
2022-10-11T09:24:45.777Z,13.48
2022-10-11T09:25:47.281Z,14.25
2022-10-11T09:26:57.524Z,12.20
2022-10-11T09:28:16.056Z,12.10
2022-10-11T09:29:29.034Z,11.65
2022-10-11T09:30:31.558Z,11.50
2022-10-11T09:31:33.627Z,10.63
2022-10-11T09:32:39.705Z,9.68
2022-10-11T09:33:47.308Z,10.93
2022-10-11T09:34:59.826Z,10.02
2022-10-11T09:36:12.888Z,9.98
2022-10-11T09:37:35.451Z,10.38
2022-10-11T09:38:53.150Z,10.40
2022-10-11T09:40:10.830Z,9.73
2022-10-11T09:41:26.984Z,10.57
2022-10-11T09:42:28.504Z,11.48
2022-10-11T09:43:30.473Z,11.25
2022-10-11T09:44:46.046Z,10.52
2022-10-11T09:45:49.694Z,11.68
2022-10-11T09:46:53.534Z,10.88
2022-10-11T09:47:57.117Z,11.55
2022-10-11T09:49:02.800Z,10.10
2022-10-11T09:50:14.327Z,11.45
2022-10-11T09:51:20.718Z,10.95
2022-10-11T09:52:23.912Z,11.13
2022-10-11T09:53:55.276Z,10.75
2022-10-11T09:55:02.210Z,10.82
2022-10-11T09:56:05.384Z,10.85
2022-10-11T09:57:19.369Z,10.35
2022-10-11T09:58:32.089Z,11.05
2022-10-11T09:59:35.285Z,10.90
2022-10-11T10:00:37.137Z,10.75
2022-10-11T10:01:38.800Z,11.57
2022-10-11T10:02:48.932Z,9.88
2022-10-11T10:04:07.921Z,10.00
2022-10-11T10:05:09.429Z,9.73
2022-10-11T10:06:14.144Z,10.35
2022-10-11T10:07:15.893Z,10.18
2022-10-11T10:08:24.468Z,10.45
2022-10-11T10:09:30.490Z,10.68
2022-10-11T10:10:41.078Z,10.63
2022-10-11T10:11:42.797Z,9.90
2022-10-11T10:12:44.387Z,9.55
2022-10-11T10:13:56.027Z,10.45
2022-10-11T10:15:08.089Z,11.18
2022-10-11T10:16:20.097Z,9.63
2022-10-11T10:17:21.798Z,9.80
2022-10-11T10:18:29.873Z,9.85
2022-10-11T10:19:47.204Z,10.35
2022-10-11T10:20:57.009Z,9.40
2022-10-11T10:21:58.690Z,8.70
2022-10-11T10:23:17.501Z,9.07
2022-10-11T10:24:37.061Z,8.77
2022-10-11T10:25:43.328Z,8.70
2022-10-11T10:27:10.806Z,8.93
2022-10-11T10:28:22.975Z,8.80
2022-10-11T10:29:24.569Z,8.52
2022-10-11T10:30:26.783Z,9.07
2022-10-11T10:32:12.896Z,8.27
2022-10-11T10:33:11.785Z,8.43
2022-10-11T10:34:21.161Z,8.75
2022-10-11T10:35:48.642Z,9.15
2022-10-11T10:37:22.231Z,9.30
2022-10-11T10:38:29.255Z,8.98
2022-10-11T10:39:50.133Z,9.60
2022-10-11T10:40:53.840Z,8.68
2022-10-11T10:41:56.078Z,9.05
2022-10-11T10:42:58.053Z,9.55
2022-10-11T10:44:00.632Z,8.80
2022-10-11T10:45:02.758Z,8.95
2022-10-11T10:46:26.221Z,9.15
2022-10-11T10:47:53.248Z,9.07
2022-10-11T10:49:51.934Z,9.82
2022-10-11T10:50:58.001Z,9.98
2022-10-11T10:52:21.058Z,8.70
2022-10-11T10:53:29.134Z,9.20
2022-10-11T10:54:57.746Z,10.02
2022-10-11T10:56:18.073Z,9.57
2022-10-11T10:57:28.459Z,9.88
2022-10-11T10:58:52.460Z,9.68
2022-10-11T11:00:12.862Z,9.55
2022-10-11T11:01:26.299Z,9.40
2022-10-11T11:03:03.105Z,9.32
2022-10-11T11:04:10.599Z,10.55
2022-10-11T11:05:37.720Z,9.82
2022-10-11T11:06:54.868Z,10.15
2022-10-11T11:08:28.879Z,10.40
2022-10-11T11:09:33.489Z,10.10
2022-10-11T11:11:02.796Z,9.82
2022-10-11T11:12:29.424Z,12.02
2022-10-11T11:14:15.112Z,10.27
2022-10-11T11:15:41.225Z,8.95
2022-10-11T11:16:55.844Z,9.57
2022-10-11T11:18:03.349Z,9.50
2022-10-11T11:19:29.589Z,10.10
2022-10-11T11:20:59.010Z,10.73
2022-10-11T11:22:14.079Z,10.18
2022-10-11T11:23:15.525Z,9.68
2022-10-11T11:24:37.607Z,9.52
2022-10-11T11:25:44.903Z,10.20
2022-10-11T11:27:01.777Z,8.65
2022-10-11T11:28:15.194Z,10.07
2022-10-11T11:29:41.184Z,9.60
2022-10-11T11:31:01.643Z,9.57
2022-10-11T11:32:34.832Z,9.15
2022-10-11T11:33:59.576Z,8.80
2022-10-11T11:35:07.614Z,9.27
2022-10-11T11:36:14.391Z,8.70
2022-10-11T11:37:21.627Z,9.50
2022-10-11T11:38:35.441Z,8.77
2022-10-11T11:39:44.729Z,9.57
2022-10-11T11:40:51.966Z,9.32
2022-10-11T11:41:56.862Z,9.38
2022-10-11T11:43:15.332Z,9.38
2022-10-11T11:44:29.619Z,8.35
2022-10-11T11:45:54.903Z,8.57
2022-10-11T11:47:05.517Z,8.80
2022-10-11T11:48:13.931Z,8.98
2022-10-11T11:49:25.097Z,7.78
2022-10-11T11:50:28.641Z,8.20
2022-10-11T11:51:41.108Z,9.18
2022-10-11T11:52:45.660Z,8.98
2022-10-11T11:54:12.117Z,8.68
2022-10-11T11:55:19.716Z,8.88
2022-10-11T11:56:33.539Z,8.20
2022-10-11T11:57:41.116Z,8.38
2022-10-11T11:58:52.672Z,8.90
2022-10-11T12:00:06.033Z,8.88
2022-10-11T12:01:31.553Z,9.23
2022-10-11T12:02:39.500Z,8.55
2022-10-11T12:03:48.164Z,8.63
2022-10-11T12:04:51.173Z,8.88
2022-10-11T12:06:14.585Z,8.10
2022-10-11T12:07:20.400Z,9.32
2022-10-11T12:08:28.200Z,8.32
2022-10-11T12:09:30.861Z,8.38
2022-10-11T12:10:50.364Z,9.13
2022-10-11T12:12:05.795Z,8.77
2022-10-11T12:13:32.254Z,8.88
2022-10-11T12:14:36.929Z,8.25
2022-10-11T12:15:38.998Z,8.32
2022-10-11T12:17:06.016Z,8.52
2022-10-11T12:18:17.321Z,8.02
2022-10-11T12:19:20.365Z,8.63
2022-10-11T12:20:30.863Z,8.05
2022-10-11T12:21:40.685Z,8.27
2022-10-11T12:22:53.973Z,8.30
2022-10-11T12:23:58.010Z,8.93
2022-10-11T12:25:20.988Z,8.23
2022-10-11T12:26:28.595Z,8.35
2022-10-11T12:27:46.491Z,8.50
2022-10-11T12:29:18.683Z,8.07
2022-10-11T12:30:48.225Z,9.15
2022-10-11T12:32:01.853Z,9.48
2022-10-11T12:33:13.415Z,8.63
2022-10-11T12:34:26.781Z,8.88
2022-10-11T12:35:42.489Z,9.00
2022-10-11T12:36:47.017Z,10.07
2022-10-11T12:38:05.767Z,9.35
2022-10-11T12:39:19.504Z,8.55
2022-10-11T12:41:00.449Z,8.45
2022-10-11T12:42:20.800Z,8.80
2022-10-11T12:43:29.946Z,9.25
2022-10-11T12:44:31.509Z,8.82
2022-10-11T12:45:36.356Z,8.35
2022-10-11T12:46:59.316Z,8.52
2022-10-11T12:48:11.679Z,9.20
2022-10-11T12:49:28.993Z,8.55
2022-10-11T12:51:19.753Z,8.30
2022-10-11T12:52:34.035Z,9.45
2022-10-11T12:54:26.624Z,9.38
2022-10-11T12:55:59.022Z,8.57
2022-10-11T12:57:12.057Z,9.05
2022-10-11T12:58:26.946Z,10.02
2022-10-11T12:59:31.891Z,9.80
2022-10-11T13:01:03.975Z,10.00
2022-10-11T13:02:29.909Z,10.95
2022-10-11T13:03:36.614Z,11.57
2022-10-11T13:04:38.209Z,11.13
2022-10-11T13:05:47.714Z,11.20
2022-10-11T13:06:54.782Z,11.55
2022-10-11T13:08:02.698Z,10.60
2022-10-11T13:09:14.741Z,10.85
2022-10-11T13:10:22.124Z,10.75
2022-10-11T13:11:29.863Z,10.93
2022-10-11T13:12:40.496Z,10.70
2022-10-11T13:13:48.522Z,11.05
2022-10-11T13:15:05.404Z,10.40
2022-10-11T13:16:13.100Z,9.85
2022-10-11T13:17:25.609Z,9.95
2022-10-11T13:18:27.176Z,11.02
2022-10-11T13:19:30.464Z,10.20
2022-10-11T13:20:37.518Z,10.70
2022-10-11T13:21:42.150Z,10.45
2022-10-11T13:22:47.444Z,10.63
2022-10-11T13:23:49.099Z,9.23
2022-10-11T13:24:50.617Z,9.38
2022-10-11T13:25:53.585Z,9.35
2022-10-11T13:26:56.639Z,8.68
2022-10-11T13:28:01.219Z,8.73
2022-10-11T13:29:02.909Z,8.55
2022-10-11T13:30:13.077Z,8.95
2022-10-11T13:31:14.655Z,8.95
2022-10-11T13:32:21.779Z,8.98
2022-10-11T13:33:35.613Z,8.48
2022-10-11T13:34:41.261Z,7.00
2022-10-11T13:35:42.891Z,7.97
2022-10-11T13:36:44.649Z,7.68
2022-10-11T13:37:48.310Z,7.00
2022-10-11T13:38:54.120Z,7.60
2022-10-11T13:39:57.450Z,6.93
2022-10-11T13:41:02.992Z,6.82
2022-10-11T13:42:14.506Z,7.03
2022-10-11T13:43:17.523Z,7.60
2022-10-11T13:44:19.216Z,6.90
2022-10-11T13:45:30.706Z,7.20
2022-10-11T13:46:38.042Z,7.13
2022-10-11T13:47:40.265Z,6.70
2022-10-11T13:48:42.576Z,7.07
2022-10-11T13:49:53.429Z,6.97
2022-10-11T13:51:16.945Z,7.28
2022-10-11T13:52:18.469Z,7.00
2022-10-11T13:53:25.130Z,6.95
2022-10-11T13:55:04.579Z,7.30
2022-10-11T13:56:09.445Z,7.35
2022-10-11T13:57:13.191Z,7.30
2022-10-11T13:58:30.099Z,7.57
2022-10-11T13:59:31.712Z,6.95
2022-10-11T14:00:36.827Z,7.75
2022-10-11T14:01:40.899Z,7.25
2022-10-11T14:02:54.698Z,7.45
2022-10-11T14:04:02.718Z,6.70
2022-10-11T14:05:04.498Z,7.90
2022-10-11T14:06:07.255Z,7.45
2022-10-11T14:07:25.066Z,7.00
2022-10-11T14:08:32.408Z,7.57
2022-10-11T14:09:39.250Z,7.32
2022-10-11T14:10:46.450Z,7.63
2022-10-11T14:11:49.020Z,7.75
2022-10-11T14:13:02.630Z,7.20
2022-10-11T14:14:34.660Z,7.88
2022-10-11T14:15:38.120Z,7.93
2022-10-11T14:16:39.681Z,7.78
2022-10-11T14:17:44.149Z,7.28
2022-10-11T14:19:02.159Z,8.20
2022-10-11T14:20:12.002Z,7.72
2022-10-11T14:21:19.268Z,7.50
2022-10-11T14:22:20.809Z,7.53
2022-10-11T14:23:22.337Z,7.95
2022-10-11T14:24:24.081Z,7.50
2022-10-11T14:25:25.644Z,8.10
2022-10-11T14:26:32.877Z,8.27
2022-10-11T14:27:34.835Z,7.53
2022-10-11T14:28:36.541Z,8.30
2022-10-11T14:29:45.713Z,8.18
2022-10-11T14:30:57.174Z,7.25
2022-10-11T14:32:08.172Z,7.72
2022-10-11T14:33:11.433Z,7.20
2022-10-11T14:34:24.396Z,7.72
2022-10-11T14:35:31.720Z,7.22
2022-10-11T14:36:33.282Z,7.50
2022-10-11T14:37:34.795Z,7.35
2022-10-11T14:38:36.366Z,6.95
2022-10-11T14:39:37.907Z,7.47
2022-10-11T14:40:39.474Z,7.30
2022-10-11T14:41:40.986Z,8.15
2022-10-11T14:42:42.521Z,7.43
2022-10-11T14:43:44.173Z,7.70
2022-10-11T14:44:45.717Z,7.70
2022-10-11T14:45:47.240Z,7.13